createdAt,value
2022-08-09T00:00:44.478Z,23.39
2022-08-09T00:04:06.131Z,23.32
2022-08-09T00:06:30.703Z,23.39
2022-08-09T00:08:59.498Z,23.21
2022-08-09T00:12:03.075Z,23.30
2022-08-09T00:15:06.571Z,23.31
2022-08-09T00:18:06.019Z,23.23
2022-08-09T00:20:59.284Z,23.03
2022-08-09T00:23:55.776Z,22.99
2022-08-09T00:26:45.069Z,23.00
2022-08-09T00:30:16.245Z,23.06
2022-08-09T00:32:06.498Z,23.05
2022-08-09T00:34:46.314Z,22.93
2022-08-09T00:37:25.608Z,22.82
2022-08-09T00:40:13.433Z,23.05
2022-08-09T00:44:10.023Z,23.01
2022-08-09T00:45:53.969Z,23.06
2022-08-09T00:48:21.612Z,22.98
2022-08-09T00:51:12.932Z,22.96
2022-08-09T00:53:51.820Z,22.84
2022-08-09T00:56:25.234Z,22.75
2022-08-09T00:59:01.148Z,22.68
2022-08-09T01:01:52.475Z,22.62
2022-08-09T01:04:32.906Z,22.48
2022-08-09T01:07:08.817Z,22.60
2022-08-09T01:10:04.113Z,22.62
2022-08-09T01:12:52.688Z,22.66
2022-08-09T01:15:51.605Z,22.69
2022-08-09T01:18:30.333Z,22.62
2022-08-09T01:21:44.508Z,22.42
2022-08-09T01:24:41.025Z,22.60
2022-08-09T01:27:24.991Z,22.65
2022-08-09T01:30:35.304Z,22.34
2022-08-09T01:33:14.356Z,22.61
2022-08-09T01:35:54.041Z,22.59
2022-08-09T01:38:33.630Z,22.31
2022-08-09T01:41:25.848Z,22.70
2022-08-09T01:44:10.409Z,22.60
2022-08-09T01:46:50.100Z,22.33
2022-08-09T01:49:27.936Z,22.53
2022-08-09T01:52:49.394Z,22.41
2022-08-09T01:55:58.476Z,22.53
2022-08-09T01:58:32.249Z,22.64
2022-08-09T02:01:06.066Z,22.58
2022-08-09T02:03:43.194Z,22.40
2022-08-09T02:06:54.428Z,22.31
2022-08-09T02:09:42.346Z,22.40
2022-08-09T02:12:21.200Z,22.27
2022-08-09T02:14:56.957Z,22.19
2022-08-09T02:18:00.944Z,22.27
2022-08-09T02:20:32.595Z,22.26
2022-08-09T02:23:14.372Z,22.24
2022-08-09T02:25:52.560Z,22.20
2022-08-09T02:28:38.802Z,22.23
2022-08-09T02:31:38.357Z,22.23
2022-08-09T02:34:41.600Z,22.22
2022-08-09T02:37:45.388Z,22.19
2022-08-09T02:40:37.776Z,22.20
2022-08-09T02:43:14.841Z,22.17
2022-08-09T02:45:49.713Z,22.10
2022-08-09T02:48:46.230Z,22.07
2022-08-09T02:51:41.563Z,22.05
2022-08-09T02:54:21.525Z,22.17
2022-08-09T02:57:23.196Z,21.97
2022-08-09T03:00:25.301Z,22.05
2022-08-09T03:03:21.439Z,21.85
2022-08-09T03:06:00.261Z,21.96
2022-08-09T03:08:41.094Z,21.70
2022-08-09T03:12:06.138Z,21.73
2022-08-09T03:14:30.353Z,21.65
2022-08-09T03:17:07.386Z,21.79
2022-08-09T03:19:59.001Z,21.63
2022-08-09T03:22:58.278Z,21.64
2022-08-09T03:25:58.016Z,21.24
2022-08-09T03:28:55.080Z,21.11
2022-08-09T03:31:31.834Z,21.22
2022-08-09T03:34:16.876Z,21.00
2022-08-09T03:36:59.859Z,20.61
2022-08-09T03:40:01.113Z,21.25
2022-08-09T03:42:35.414Z,21.30
2022-08-09T03:45:14.087Z,21.42
2022-08-09T03:47:48.804Z,21.56
2022-08-09T03:50:27.892Z,21.48
2022-08-09T03:53:22.643Z,21.55
2022-08-09T03:56:07.156Z,21.58
2022-08-09T03:58:59.900Z,21.65
2022-08-09T04:01:39.296Z,21.62
2022-08-09T04:04:14.505Z,21.66
2022-08-09T04:06:49.955Z,21.65
2022-08-09T04:09:48.442Z,21.28
2022-08-09T04:12:44.709Z,21.63
2022-08-09T04:15:29.502Z,21.46
2022-08-09T04:18:22.294Z,21.47
2022-08-09T04:21:09.214Z,21.54
2022-08-09T04:24:04.481Z,21.52
2022-08-09T04:26:45.088Z,21.29
2022-08-09T04:29:32.762Z,21.29
2022-08-09T04:32:07.440Z,21.12
2022-08-09T04:34:35.198Z,20.99
2022-08-09T04:37:08.818Z,21.15
2022-08-09T04:39:44.690Z,21.16
2022-08-09T04:42:36.726Z,21.23
2022-08-09T04:45:11.050Z,21.09
2022-08-09T04:48:00.286Z,21.10
2022-08-09T04:50:37.727Z,21.05
2022-08-09T04:53:35.759Z,20.94
2022-08-09T04:56:28.483Z,20.78
2022-08-09T04:58:57.461Z,21.03
2022-08-09T05:01:30.864Z,20.94
2022-08-09T05:04:19.393Z,20.99
2022-08-09T05:07:02.812Z,21.02
2022-08-09T05:09:48.786Z,20.83
2022-08-09T05:12:23.715Z,20.68
2022-08-09T05:14:54.038Z,20.57
2022-08-09T05:18:38.718Z,20.86
2022-08-09T05:20:29.896Z,20.92
2022-08-09T05:23:57.103Z,20.92
2022-08-09T05:26:35.873Z,20.67
2022-08-09T05:29:31.189Z,20.89
2022-08-09T05:32:02.521Z,21.10
2022-08-09T05:34:34.189Z,21.11
2022-08-09T05:37:26.471Z,21.02
2022-08-09T05:39:56.616Z,21.26
2022-08-09T05:42:34.577Z,21.27
2022-08-09T05:45:02.306Z,21.07
2022-08-09T05:47:33.300Z,21.48
2022-08-09T05:50:51.335Z,21.62
2022-08-09T05:53:56.902Z,21.68
2022-08-09T05:56:55.050Z,21.12
2022-08-09T06:07:03.075Z,22.03
2022-08-09T06:09:54.356Z,21.81
2022-08-09T06:12:19.164Z,22.08
2022-08-09T06:14:46.326Z,22.11
2022-08-09T06:17:13.467Z,22.19
2022-08-09T06:19:46.407Z,22.19
2022-08-09T06:22:16.373Z,22.45
2022-08-09T06:24:44.091Z,22.67
2022-08-09T06:27:11.184Z,22.71
2022-08-09T06:29:48.137Z,22.80
2022-08-09T06:33:13.789Z,22.94
2022-08-09T06:35:35.816Z,23.09
2022-08-09T06:38:17.150Z,23.33
2022-08-09T06:40:46.619Z,23.46
2022-08-09T06:43:18.234Z,23.35
2022-08-09T06:46:07.169Z,23.51
2022-08-09T06:48:33.280Z,23.71
2022-08-09T06:51:05.115Z,23.56
2022-08-09T06:53:38.075Z,23.73
2022-08-09T06:56:09.714Z,24.21
2022-08-09T07:00:49.822Z,23.85
2022-08-09T07:05:03.251Z,23.74
2022-08-09T07:07:59.970Z,24.32
2022-08-09T07:10:31.266Z,23.93
2022-08-09T07:16:38.529Z,24.70
2022-08-09T07:18:43.626Z,25.01
2022-08-09T07:24:57.235Z,25.11
2022-08-09T07:31:27.365Z,25.60
2022-08-09T07:34:28.714Z,25.65
2022-08-09T07:37:19.690Z,25.98
2022-08-09T07:40:17.063Z,25.86
2022-08-09T07:46:57.037Z,25.20
2022-08-09T07:54:07.711Z,26.99
2022-08-09T08:01:06.639Z,27.30
2022-08-09T08:03:51.366Z,27.05
2022-08-09T08:06:31.878Z,25.02
2022-08-09T08:09:34.439Z,26.44
2022-08-09T08:12:27.646Z,27.35
2022-08-09T08:15:44.660Z,27.87
2022-08-09T08:18:37.874Z,27.31
2022-08-09T08:22:05.121Z,28.46
2022-08-09T08:25:44.129Z,27.35
2022-08-09T08:29:04.469Z,28.69
2022-08-09T08:35:22.471Z,27.89
2022-08-09T08:38:30.554Z,27.75
2022-08-09T08:41:08.540Z,29.20
2022-08-09T08:43:41.500Z,29.87
2022-08-09T08:46:33.480Z,28.67
2022-08-09T08:49:08.922Z,28.81
2022-08-09T08:52:29.381Z,27.21
2022-08-09T08:55:23.576Z,27.83
2022-08-09T08:58:39.145Z,27.87
2022-08-09T09:01:52.436Z,28.35
2022-08-09T09:04:52.825Z,28.19
2022-08-09T09:10:59.061Z,30.04
2022-08-09T09:13:42.125Z,29.55
2022-08-09T09:16:59.749Z,28.28
2022-08-09T09:19:54.270Z,29.18
2022-08-09T09:22:43.990Z,29.75
2022-08-09T09:26:01.084Z,31.30
2022-08-09T09:28:21.440Z,31.55
2022-08-09T09:32:03.367Z,32.82
2022-08-09T09:35:10.020Z,32.48
2022-08-09T09:37:47.846Z,30.71
2022-08-09T09:41:06.639Z,30.40
2022-08-09T09:44:15.621Z,33.10
2022-08-09T09:47:16.794Z,30.27
2022-08-09T09:50:17.033Z,30.68
2022-08-09T09:54:03.987Z,30.58
2022-08-09T09:58:00.676Z,31.78
2022-08-09T10:00:26.827Z,30.83
2022-08-09T10:03:34.102Z,33.89
2022-08-09T10:06:23.070Z,31.43
2022-08-09T10:09:48.670Z,34.14
2022-08-09T10:12:51.951Z,34.94
2022-08-09T10:16:09.674Z,34.61
2022-08-09T10:18:40.338Z,33.88
2022-08-09T10:21:45.831Z,35.67
2022-08-09T10:24:41.478Z,31.26
2022-08-09T10:27:38.656Z,33.63
2022-08-09T10:34:11.258Z,32.72
2022-08-09T10:37:00.722Z,34.39
2022-08-09T10:40:33.792Z,33.49
2022-08-09T10:43:02.323Z,29.91
2022-08-09T10:45:35.418Z,30.24
2022-08-09T10:48:32.332Z,32.82
2022-08-09T10:51:13.720Z,33.39
2022-08-09T10:54:06.147Z,34.81
2022-08-09T10:56:41.556Z,35.44
2022-08-09T10:59:55.716Z,31.23
2022-08-09T11:03:14.214Z,34.42
2022-08-09T11:05:36.738Z,32.79
2022-08-09T11:08:47.838Z,32.58
2022-08-09T11:11:17.469Z,33.02
2022-08-09T11:13:50.553Z,34.16
2022-08-09T11:16:35.648Z,33.37
2022-08-09T11:19:10.685Z,33.33
2022-08-09T11:22:10.470Z,33.01
2022-08-09T11:25:44.668Z,32.00
2022-08-09T11:28:33.962Z,35.04
2022-08-09T11:31:43.167Z,33.82
2022-08-09T11:34:25.089Z,33.15
2022-08-09T11:36:53.282Z,32.82
2022-08-09T11:39:20.666Z,34.82
2022-08-09T11:41:48.885Z,34.41
2022-08-09T11:44:16.208Z,34.29
2022-08-09T11:46:55.082Z,34.15
2022-08-09T11:50:53.252Z,38.23
2022-08-09T11:53:55.179Z,35.25
2022-08-09T11:55:52.474Z,35.08
2022-08-09T11:58:32.388Z,35.47
2022-08-09T12:01:37.614Z,33.82
2022-08-09T12:04:20.876Z,34.58
2022-08-09T12:07:16.153Z,33.33
2022-08-09T12:09:50.983Z,32.55
2022-08-09T12:12:38.868Z,32.35
2022-08-09T12:15:49.516Z,31.81
2022-08-09T12:18:30.366Z,32.51
2022-08-09T12:21:04.078Z,33.93
2022-08-09T12:24:06.558Z,34.37
2022-08-09T12:26:41.245Z,32.91
2022-08-09T12:29:44.761Z,32.86
2022-08-09T12:32:11.932Z,34.77
2022-08-09T12:34:42.613Z,32.10
2022-08-09T12:37:24.019Z,35.92
2022-08-09T12:40:11.808Z,35.10
2022-08-09T12:42:44.879Z,33.41
2022-08-09T12:45:34.566Z,37.26
2022-08-09T12:48:00.714Z,33.56
2022-08-09T12:50:28.660Z,31.95
2022-08-09T12:53:18.053Z,33.43
2022-08-09T12:56:13.100Z,36.84
2022-08-09T12:58:31.923Z,37.00
2022-08-09T13:01:04.678Z,35.63
2022-08-09T13:03:53.030Z,36.65
2022-08-09T13:06:48.291Z,34.46
2022-08-09T13:09:19.409Z,37.29
2022-08-09T13:11:50.802Z,36.57
2022-08-09T13:14:40.697Z,32.99
2022-08-09T13:18:02.577Z,35.53
2022-08-09T13:20:37.781Z,35.83
2022-08-09T13:24:44.433Z,35.61
2022-08-09T17:52:29.882Z,33.05
2022-08-09T17:55:05.709Z,32.22
2022-08-09T17:58:03.626Z,33.05
2022-08-09T18:00:33.553Z,32.05
2022-08-09T18:03:17.998Z,31.57
2022-08-09T18:05:57.054Z,32.36
2022-08-09T18:08:30.103Z,32.98
2022-08-09T18:11:02.632Z,32.93
2022-08-09T18:13:55.511Z,33.19
2022-08-09T18:16:30.773Z,32.92
2022-08-09T18:19:03.798Z,33.12
2022-08-09T18:21:50.239Z,32.72
2022-08-09T18:24:27.484Z,32.43
2022-08-09T18:26:57.550Z,31.59
2022-08-09T18:30:38.746Z,31.54
2022-08-09T18:32:22.681Z,31.98
2022-08-09T18:34:59.455Z,32.07
2022-08-09T18:37:48.636Z,31.39
2022-08-09T18:40:16.082Z,32.13
2022-08-09T18:42:48.690Z,31.00
2022-08-09T18:46:47.038Z,30.62
2022-08-09T18:48:17.696Z,31.43
2022-08-09T18:50:45.266Z,31.42
2022-08-09T18:53:16.572Z,30.83
2022-08-09T18:55:56.417Z,30.85
2022-08-09T18:58:32.184Z,30.97
2022-08-09T19:01:08.413Z,30.90
2022-08-09T19:04:01.599Z,31.14
2022-08-09T19:06:39.201Z,30.70
2022-08-09T19:10:14.593Z,30.99
2022-08-09T19:12:34.115Z,30.95
2022-08-09T19:15:28.052Z,30.95
2022-08-09T19:18:33.326Z,30.68
2022-08-09T19:21:18.906Z,30.81
2022-08-09T19:24:32.673Z,30.68
2022-08-09T19:26:51.454Z,30.57
2022-08-09T19:29:29.037Z,30.32
2022-08-09T19:32:07.467Z,30.35
2022-08-09T19:34:41.422Z,30.31
2022-08-09T19:37:16.871Z,30.23
2022-08-09T19:40:05.078Z,29.93
2022-08-09T19:42:43.041Z,29.60
2022-08-09T19:45:23.302Z,29.79
2022-08-09T19:48:16.229Z,29.69
2022-08-09T19:51:04.233Z,28.97
2022-08-09T19:53:37.171Z,29.09
2022-08-09T19:56:16.023Z,29.16
2022-08-09T19:59:18.635Z,28.94
2022-08-09T20:01:52.182Z,28.46
2022-08-09T20:04:36.566Z,28.41
2022-08-09T20:07:15.964Z,28.77
2022-08-09T20:09:52.007Z,28.59
2022-08-09T20:12:46.037Z,27.69
2022-08-09T20:16:35.458Z,28.00
2022-08-09T20:18:22.300Z,27.79
2022-08-09T20:20:58.093Z,27.65
2022-08-09T20:23:40.035Z,27.93
2022-08-09T20:26:31.561Z,28.03
2022-08-09T20:29:01.397Z,27.69
2022-08-09T20:32:29.055Z,27.55
2022-08-09T20:34:44.081Z,27.78
2022-08-09T20:37:16.270Z,27.89
2022-08-09T20:40:16.198Z,27.59
2022-08-09T20:43:00.130Z,27.61
2022-08-09T20:46:01.405Z,26.88
2022-08-09T20:48:29.050Z,26.82
2022-08-09T20:50:59.350Z,26.94
2022-08-09T20:53:37.225Z,27.48
2022-08-09T20:56:20.939Z,27.67
2022-08-09T20:58:58.831Z,27.71
2022-08-09T21:01:35.246Z,27.80
2022-08-09T21:05:51.131Z,27.62
2022-08-09T21:07:13.843Z,27.55
2022-08-09T21:09:56.464Z,27.38
2022-08-09T21:15:23.616Z,27.21
2022-08-09T21:18:22.560Z,27.14
2022-08-09T21:20:56.873Z,27.09
2022-08-09T21:23:35.935Z,26.96
2022-08-09T21:26:15.642Z,26.86
2022-08-09T21:28:55.942Z,26.79
2022-08-09T21:31:24.282Z,26.65
2022-08-09T21:34:17.110Z,26.74
2022-08-09T21:36:56.795Z,26.67
2022-08-09T21:39:41.623Z,26.61
2022-08-09T21:42:28.369Z,26.50
2022-08-09T21:45:01.360Z,26.47
2022-08-09T21:47:39.267Z,26.39
2022-08-09T21:50:09.117Z,26.29
2022-08-09T21:52:53.903Z,26.24
2022-08-09T21:55:21.820Z,26.17
2022-08-09T21:57:59.420Z,26.07
2022-08-09T22:00:36.118Z,26.13
2022-08-09T22:03:19.515Z,26.07
2022-08-09T22:05:57.963Z,26.02
2022-08-09T22:08:30.406Z,25.85
2022-08-09T22:12:05.587Z,25.82
2022-08-09T22:14:00.726Z,25.89
2022-08-09T22:16:32.933Z,25.87
2022-08-09T22:19:04.537Z,25.79
2022-08-09T22:21:59.654Z,25.80
2022-08-09T22:24:26.837Z,25.71
2022-08-09T22:27:05.088Z,25.64
2022-08-09T22:29:48.530Z,25.66
2022-08-09T22:32:29.993Z,25.65
2022-08-09T22:35:06.098Z,25.41
2022-08-09T22:37:40.217Z,25.59
2022-08-09T22:40:09.512Z,25.46
2022-08-09T22:42:39.750Z,25.44
2022-08-09T22:48:10.398Z,25.25
2022-08-09T22:48:19.616Z,25.25
2022-08-09T22:51:10.680Z,25.21
2022-08-09T22:54:02.838Z,25.11
2022-08-09T22:56:34.094Z,25.00
2022-08-09T22:59:56.119Z,25.12
2022-08-09T23:01:58.675Z,24.56
2022-08-09T23:04:25.824Z,24.81
2022-08-09T23:07:13.889Z,24.81
2022-08-09T23:09:47.167Z,24.52
2022-08-09T23:12:19.996Z,24.26
2022-08-09T23:14:55.363Z,24.42
2022-08-09T23:17:22.662Z,24.49
2022-08-09T23:20:01.119Z,24.59
2022-08-09T23:22:41.515Z,24.56
2022-08-09T23:25:14.232Z,24.66
2022-08-09T23:28:00.595Z,24.66
2022-08-09T23:30:37.965Z,24.42
2022-08-09T23:33:10.546Z,24.01
2022-08-09T23:36:06.472Z,23.99
2022-08-09T23:38:48.205Z,23.80
2022-08-09T23:41:28.864Z,24.20
2022-08-09T23:44:04.730Z,24.34
2022-08-09T23:46:32.259Z,24.46
2022-08-09T23:49:00.808Z,24.49
2022-08-09T23:51:33.927Z,24.44
2022-08-09T23:54:04.329Z,24.44
2022-08-09T23:56:51.973Z,24.39
2022-08-09T23:59:53.410Z,24.39
